Time;durP1;ratioP1;P1;durP2;ratioP2;P2;SDS_P1;SDS_P2;PMS_P1;PMS_P2;Temp;Humidity;BMP_temperature;BMP_pressure;BME280_temperature;BME280_humidity;BME280_pressure;Samples;Min_cycle;Max_cycle;Signal;HPM_P1;HPM_P2
2022/01/25 00:15:12;;;;;;;66.78;60.88;;;;;;;-5.35;100.00;102804.94;5052710;28;20436;-81
2022/01/25 00:26:05;;;;;;;55.63;50.35;;;;;;;-5.62;100.00;102805.84;5046725;28;20161;-81
2022/01/25 00:28:45;;;;;;;59.05;53.15;;;;;;;-6.01;100.00;102801.94;5051936;28;20573;-80
2022/01/25 00:31:13;;;;;;;51.00;47.67;;;;;;;-4.95;100.00;102810.50;5046950;28;20139;-80
2022/01/25 00:33:42;;;;;;;56.88;51.50;;;;;;;-5.87;100.00;102806.66;5052265;28;20497;-80
2022/01/25 00:36:11;;;;;;;59.20;53.35;;;;;;;-5.86;100.00;102804.91;5052345;28;20053;-82
2022/01/25 00:38:38;;;;;;;59.72;54.13;;;;;;;-6.05;100.00;102802.06;5051386;28;20122;-80
2022/01/25 00:41:05;;;;;;;60.53;54.75;;;;;;;-5.72;100.00;102800.09;5054888;28;20053;-80
2022/01/25 00:43:32;;;;;;;66.57;60.20;;;;;;;-6.05;100.00;102800.34;5056168;28;20440;-80
2022/01/25 00:46:02;;;;;;;58.95;53.40;;;;;;;-5.85;100.00;102804.84;5056758;28;20044;-84
2022/01/25 00:48:42;;;;;;;59.55;54.20;;;;;;;-5.90;100.00;102809.34;5048563;28;20041;-83
2022/01/25 00:51:24;;;;;;;61.20;55.72;;;;;;;-5.10;100.00;102804.94;5051832;28;20131;-84
2022/01/25 00:53:55;;;;;;;60.40;54.30;;;;;;;-5.79;100.00;102790.84;5055510;28;20056;-82
2022/01/25 00:56:23;;;;;;;59.78;53.90;;;;;;;-5.96;100.00;102790.56;5056317;28;20059;-80
2022/01/25 00:58:50;;;;;;;62.30;56.42;;;;;;;-5.90;100.00;102788.63;5055369;28;20045;-83
2022/01/25 01:01:17;;;;;;;53.00;48.65;;;;;;;-5.08;100.00;102789.34;5054519;28;20135;-83
2022/01/25 01:03:44;;;;;;;51.85;48.05;;;;;;;-4.56;100.00;102787.44;5048743;28;20103;-83
2022/01/25 01:06:14;;;;;;;59.38;54.30;;;;;;;-3.43;100.00;102795.09;5055698;28;20095;-80
2022/01/25 01:08:41;;;;;;;59.80;54.42;;;;;;;-3.79;100.00;102781.84;5047440;28;20053;-83
2022/01/25 01:11:12;;;;;;;61.15;55.67;;;;;;;-5.41;100.00;102781.00;5055897;28;20049;-82
2022/01/25 01:13:56;;;;;;;59.15;53.75;;;;;;;-5.32;100.00;102776.34;5055844;28;20041;-80
2022/01/25 01:16:53;;;;;;;61.55;55.60;;;;;;;-5.37;100.00;102778.22;5056184;28;20492;-81
2022/01/25 01:39:03;;;;;;;57.45;51.83;;;;;;;-5.63;100.00;102765.31;5085697;28;20044;-80
2022/01/25 01:41:47;;;;;;;56.67;51.53;;;;;;;-5.72;100.00;102750.06;5090293;28;20050;-82
2022/01/25 01:44:23;;;;;;;58.03;52.22;;;;;;;-5.84;100.00;102751.31;5089665;28;20048;-82
2022/01/25 01:47:06;;;;;;;52.20;48.40;;;;;;;-3.29;100.00;102738.19;5090724;28;20143;-82
2022/01/25 01:49:40;;;;;;;59.47;54.20;;;;;;;-5.66;100.00;102736.94;5090648;28;20048;-80
2022/01/25 01:52:08;;;;;;;58.60;52.60;;;;;;;-5.87;100.00;102741.06;5083468;28;20057;-81
2022/01/25 01:54:36;;;;;;;53.60;48.33;;;;;;;-3.65;100.00;102737.16;5088885;28;20051;-80
2022/01/25 01:57:04;;;;;;;46.28;43.30;;;;;;;-3.84;100.00;102737.91;5090807;28;20060;-82
2022/01/25 01:59:31;;;;;;;59.75;53.95;;;;;;;-5.81;100.00;102739.16;5090299;28;20052;-82
2022/01/25 02:01:58;;;;;;;49.95;46.10;;;;;;;-4.16;100.00;102739.22;5090385;28;20373;-81
2022/01/25 02:04:25;;;;;;;54.72;50.15;;;;;;;-5.85;100.00;102739.28;5090396;28;20113;-80
2022/01/25 02:06:54;;;;;;;54.03;49.38;;;;;;;-6.01;100.00;102732.06;5085389;28;20125;-80
2022/01/25 02:09:21;;;;;;;58.55;53.13;;;;;;;-5.88;100.00;102731.63;5085570;28;20082;-83
2022/01/25 02:11:47;;;;;;;60.28;54.80;;;;;;;-5.38;100.00;102732.50;5090019;28;20121;-82
2022/01/25 02:14:16;;;;;;;60.15;54.58;;;;;;;-5.89;100.00;102724.78;5089999;28;20114;-81
2022/01/25 02:16:58;;;;;;;57.90;52.75;;;;;;;-5.93;100.00;102720.59;5091110;28;20415;-79
2022/01/25 02:22:33;;;;;;;58.13;51.95;;;;;;;-5.91;100.00;102717.03;5088110;28;20051;-83
2022/01/25 02:25:00;;;;;;;60.70;55.20;;;;;;;-5.96;100.00;102718.13;5089516;28;20135;-80
2022/01/25 02:27:27;;;;;;;58.80;53.60;;;;;;;-6.06;100.00;102714.97;5082685;28;20106;-82
2022/01/25 02:29:54;;;;;;;57.95;52.47;;;;;;;-5.48;100.00;102713.00;5090046;28;20477;-81
2022/01/25 02:32:21;;;;;;;60.20;54.33;;;;;;;-5.55;100.00;102712.38;5089447;28;20060;-79
2022/01/25 02:34:49;;;;;;;54.25;50.17;;;;;;;-4.12;100.00;102703.59;5080142;28;20055;-79
2022/01/25 02:37:17;;;;;;;59.33;53.53;;;;;;;-5.66;100.00;102705.84;5085048;28;20048;-80
2022/01/25 02:39:46;;;;;;;60.58;54.35;;;;;;;-5.63;100.00;102704.00;5089898;28;20063;-83
2022/01/25 02:42:15;;;;;;;53.65;49.20;;;;;;;-5.71;100.00;102698.25;5087056;28;20437;-84
2022/01/25 02:44:43;;;;;;;59.47;54.00;;;;;;;-6.05;100.00;102686.50;5075971;28;20090;-79
2022/01/25 02:49:55;;;;;;;60.75;54.58;;;;;;;-5.93;100.00;102702.47;5075481;28;20449;-80
2022/01/25 02:52:24;;;;;;;59.55;53.88;;;;;;;-5.96;100.00;102684.47;5071389;28;20106;-82
2022/01/25 02:54:51;;;;;;;62.50;55.92;;;;;;;-6.01;100.00;102690.66;5075730;28;20488;-82
2022/01/25 02:57:18;;;;;;;503.98;184.63;;;;;;;-6.04;100.00;102690.75;5075100;28;20045;-82
2022/01/25 02:59:45;;;;;;;74.28;62.00;;;;;;;-6.03;100.00;102691.59;5075755;28;20048;-80
2022/01/25 03:02:12;;;;;;;68.03;60.88;;;;;;;-6.02;100.00;102694.16;5171525;22;20386;-80
2022/01/25 03:04:39;;;;;;;79.80;64.95;;;;;;;-6.11;100.00;102684.09;5051671;28;20057;-83
2022/01/25 03:07:07;;;;;;;131.40;85.75;;;;;;;-6.13;100.00;102682.47;5055916;28;20435;-79
2022/01/25 03:09:36;;;;;;;60.67;54.53;;;;;;;-6.28;100.00;102684.63;5055490;28;20444;-79
2022/01/25 03:12:06;;;;;;;64.30;57.42;;;;;;;-6.30;100.00;102673.47;5055419;28;20110;-82
2022/01/25 03:14:36;;;;;;;66.82;59.83;;;;;;;-6.25;100.00;102683.69;5054807;28;20067;-79
2022/01/25 03:17:11;;;;;;;65.97;59.47;;;;;;;-6.40;100.00;102684.19;5055422;28;20056;-80
2022/01/25 03:22:43;;;;;;;66.55;59.67;;;;;;;-6.89;100.00;102678.78;5049501;28;20056;-79
2022/01/25 03:25:12;;;;;;;84.05;66.57;;;;;;;-6.62;100.00;102689.19;5051548;28;20408;-81
2022/01/25 03:27:39;;;;;;;81.30;68.53;;;;;;;-6.59;100.00;102679.59;5054592;28;20199;-81
2022/01/25 03:30:07;;;;;;;162.93;100.70;;;;;;;-6.65;100.00;102672.03;5055560;28;20477;-82
2022/01/25 03:32:33;;;;;;;98.40;71.88;;;;;;;-6.57;100.00;102662.28;5053985;28;20040;-79
2022/01/25 03:35:00;;;;;;;86.30;69.50;;;;;;;-6.66;100.00;102670.31;5055212;28;20126;-82
2022/01/25 03:37:27;;;;;;;118.35;80.50;;;;;;;-6.66;100.00;102659.13;5054720;28;20052;-79
2022/01/25 03:39:54;;;;;;;69.63;60.28;;;;;;;-6.76;100.00;102655.97;5055025;28;20381;-78
2022/01/25 03:42:23;;;;;;;77.68;69.38;;;;;;;-6.75;100.00;102655.91;5054529;28;20153;-79
2022/01/25 03:44:50;;;;;;;78.68;70.47;;;;;;;-6.86;100.00;102649.41;5054609;28;20049;-82
2022/01/25 03:47:20;;;;;;;78.78;70.82;;;;;;;-6.92;100.00;102638.38;5053981;28;20048;-81
2022/01/25 03:49:50;;;;;;;68.95;61.75;;;;;;;-7.02;100.00;102636.09;5054423;28;20064;-82
2022/01/25 03:52:23;;;;;;;62.33;55.60;;;;;;;-7.05;100.00;102646.50;5054274;28;20049;-79
2022/01/25 03:54:50;;;;;;;68.38;61.15;;;;;;;-7.07;100.00;102651.72;5053623;28;20404;-79
2022/01/25 03:57:17;;;;;;;68.32;61.25;;;;;;;-7.09;100.00;102658.66;5054406;28;20425;-82
2022/01/25 03:59:46;;;;;;;98.10;68.60;;;;;;;-7.23;100.00;102645.31;5054166;28;20049;-83
2022/01/25 04:02:13;;;;;;;64.55;57.88;;;;;;;-7.17;100.00;102650.28;5039370;28;20060;-82
2022/01/25 04:04:40;;;;;;;63.97;57.53;;;;;;;-7.28;100.00;102647.19;5054195;28;20455;-80
2022/01/25 04:07:10;;;;;;;110.13;72.45;;;;;;;-7.18;100.00;102652.03;5052386;28;20059;-81
2022/01/25 04:09:38;;;;;;;174.27;91.50;;;;;;;-7.33;100.00;102655.06;5054817;28;20057;-79
2022/01/25 04:12:07;;;;;;;133.32;82.78;;;;;;;-7.49;100.00;102652.06;5051721;28;20041;-82
2022/01/25 04:14:34;;;;;;;213.25;107.60;;;;;;;-7.48;100.00;102653.75;5054151;28;20060;-80
2022/01/25 04:17:05;;;;;;;129.70;98.28;;;;;;;-7.55;100.00;102653.97;5053721;28;20052;-82
2022/01/25 04:19:37;;;;;;;116.90;84.35;;;;;;;-7.54;100.00;102659.06;5054405;28;20128;-79
2022/01/25 04:25:11;;;;;;;92.45;73.93;;;;;;;-7.28;100.00;102657.53;5049254;28;20492;-79
2022/01/25 04:27:38;;;;;;;105.88;78.20;;;;;;;-7.39;100.00;102650.91;5054410;28;20053;-77
2022/01/25 04:30:07;;;;;;;98.55;74.97;;;;;;;-7.19;100.00;102654.66;5054579;28;20537;-82
2022/01/25 04:32:42;;;;;;;117.95;86.00;;;;;;;-7.19;100.00;102660.69;5052290;28;20562;-79
2022/01/25 04:35:25;;;;;;;77.38;68.82;;;;;;;-7.10;100.00;102646.66;5053163;28;20465;-79
2022/01/25 04:49:05;;;;;;;99.60;76.32;;;;;;;-6.93;100.00;102651.31;5050672;28;20091;-82
2022/01/25 04:51:49;;;;;;;62.70;55.85;;;;;;;-6.88;100.00;102649.44;5052772;28;20080;-81
2022/01/25 04:54:27;;;;;;;62.13;55.65;;;;;;;-6.85;100.00;102646.75;5051576;28;20059;-81
2022/01/25 04:57:03;;;;;;;62.58;56.33;;;;;;;-6.91;100.00;102637.47;5053353;28;20477;-81
2022/01/25 04:59:36;;;;;;;63.53;56.83;;;;;;;-6.93;100.00;102646.13;5052876;28;20064;-82
2022/01/25 05:02:08;;;;;;;61.83;55.72;;;;;;;-6.80;100.00;102649.22;5037157;28;20110;-81
2022/01/25 05:04:41;;;;;;;61.85;55.45;;;;;;;-6.91;100.00;102637.47;5052226;28;20045;-81
2022/01/25 05:07:19;;;;;;;70.25;62.20;;;;;;;-6.90;100.00;102630.53;5043817;28;20049;-78
2022/01/25 05:09:47;;;;;;;67.78;60.67;;;;;;;-6.85;100.00;102633.84;5051251;28;20130;-83
2022/01/25 05:12:14;;;;;;;65.75;59.05;;;;;;;-6.91;100.00;102641.78;5052927;28;20049;-83
2022/01/25 05:14:56;;;;;;;65.55;59.03;;;;;;;-6.87;100.00;102627.88;5045915;28;20053;-82
2022/01/25 05:17:32;;;;;;;;;;;;;;;-6.90;100.00;102627.97;5052585;28;20072;-79
2022/01/25 05:22:54;;;;;;;64.75;58.63;;;;;;;-6.91;100.00;102631.44;5078577;28;20572;-80
2022/01/25 05:25:20;;;;;;;65.03;58.90;;;;;;;-6.98;100.00;102627.38;5076187;28;20036;-80
2022/01/25 05:30:24;;;;;;;70.40;63.83;;;;;;;-7.03;100.00;102629.22;5126382;27;20384;-79
2022/01/25 05:32:51;;;;;;;69.60;62.75;;;;;;;-6.99;100.00;102628.25;5116974;28;20111;-82
2022/01/25 05:36:36;;;;;;;85.15;76.18;;;;;;;-7.13;100.00;102625.25;5084405;27;20394;-83
2022/01/25 05:39:10;;;;;;;93.97;83.68;;;;;;;-7.11;100.00;102629.44;5070229;28;20045;-83
2022/01/25 05:41:36;;;;;;;78.85;71.38;;;;;;;-6.86;100.00;102632.16;5067167;28;20049;-80
2022/01/25 05:44:23;;;;;;;83.07;74.47;;;;;;;-6.61;100.00;102627.06;5066328;28;20076;-80
2022/01/25 05:47:04;;;;;;;85.60;76.53;;;;;;;-6.74;100.00;102631.78;5067674;28;20125;-80
2022/01/25 05:49:31;;;;;;;74.20;67.78;;;;;;;-6.28;100.00;102617.38;5035491;27;20147;-80
2022/01/25 05:51:59;;;;;;;82.63;73.95;;;;;;;-6.50;100.00;102622.41;5038874;28;20053;-80
2022/01/25 05:54:26;;;;;;;87.68;78.38;;;;;;;-6.50;100.00;102619.84;5018086;28;20054;-81
2022/01/25 05:56:52;;;;;;;76.40;69.32;;;;;;;-6.46;100.00;102630.91;5025403;28;20046;-80
2022/01/25 05:59:19;;;;;;;78.05;70.80;;;;;;;-6.60;100.00;102615.00;5023474;28;20049;-83
2022/01/25 06:01:46;;;;;;;77.05;69.68;;;;;;;-6.58;100.00;102616.63;5030030;28;20466;-82
2022/01/25 06:04:13;;;;;;;78.43;71.15;;;;;;;-6.58;100.00;102619.22;5024108;28;20050;-81
2022/01/25 06:06:40;;;;;;;84.47;76.20;;;;;;;-6.93;100.00;102615.13;5021693;28;20049;-80
2022/01/25 06:09:10;;;;;;;84.18;76.60;;;;;;;-1.05;100.00;102624.84;5028733;28;20042;-84
2022/01/25 06:11:37;;;;;;;87.07;79.03;;;;;;;-4.95;100.00;102616.09;5025538;28;20544;-78
2022/01/25 06:14:04;;;;;;;95.45;85.50;;;;;;;-6.99;100.00;102605.88;5019833;28;20049;-81
2022/01/25 06:16:31;;;;;;;94.40;84.70;;;;;;;-7.15;100.00;102609.78;5026499;28;20048;-81
2022/01/25 06:18:59;;;;;;;107.10;89.88;;;;;;;-7.31;100.00;102611.13;5021198;28;20080;-81
2022/01/25 06:21:26;;;;;;;98.90;87.50;;;;;;;-7.07;100.00;102610.41;5020208;28;20474;-81
2022/01/25 06:23:52;;;;;;;94.53;84.25;;;;;;;-6.84;100.00;102619.19;5026452;28;20119;-79
2022/01/25 06:26:20;;;;;;;97.93;87.45;;;;;;;-6.79;100.00;102604.38;5023143;28;20115;-80
2022/01/25 06:28:47;;;;;;;92.70;83.18;;;;;;;-6.70;100.00;102606.69;5021342;28;20111;-78
2022/01/25 06:31:17;;;;;;;92.57;83.53;;;;;;;-6.67;100.00;102606.59;5026569;28;20059;-82
2022/01/25 06:33:44;;;;;;;95.95;86.47;;;;;;;-6.47;100.00;102611.13;5026985;28;20050;-81
2022/01/25 06:36:11;;;;;;;95.93;86.13;;;;;;;-6.36;100.00;102611.59;5026722;28;20065;-82
2022/01/25 06:38:38;;;;;;;90.65;81.75;;;;;;;-6.26;100.00;102610.44;5023540;28;20769;-81
2022/01/25 06:41:05;;;;;;;87.43;79.20;;;;;;;-6.49;100.00;102605.16;5023229;28;20050;-82
2022/01/25 06:43:33;;;;;;;91.82;82.95;;;;;;;-5.60;100.00;102602.94;5026829;28;20064;-81
2022/01/25 06:48:50;;;;;;;92.35;83.53;;;;;;;-4.92;100.00;102582.28;5086167;27;20958;-79
2022/01/25 06:51:17;;;;;;;88.88;80.97;;;;;;;-5.01;100.00;102580.03;5063646;28;20049;-81
2022/01/25 06:53:43;;;;;;;80.30;73.32;;;;;;;-5.78;100.00;102581.16;5069229;28;20056;-80
2022/01/25 06:56:10;;;;;;;82.22;74.97;;;;;;;-5.02;100.00;102584.38;5067879;28;20053;-80
2022/01/25 06:58:38;;;;;;;79.32;72.28;;;;;;;-6.05;100.00;102587.28;5064028;28;20107;-80
2022/01/25 07:01:05;;;;;;;76.47;69.82;;;;;;;-5.38;100.00;102581.44;5070822;28;20045;-82
2022/01/25 07:03:31;;;;;;;82.38;75.07;;;;;;;-5.00;100.00;102576.53;5063689;28;20516;-82
2022/01/25 07:05:59;;;;;;;83.38;76.28;;;;;;;-4.50;100.00;102582.31;5062673;28;20045;-79
2022/01/25 07:08:27;;;;;;;88.85;80.70;;;;;;;-4.63;100.00;102573.31;5054991;28;20520;-81
2022/01/25 07:10:53;;;;;;;85.38;77.95;;;;;;;-4.88;100.00;102571.69;5062013;28;20487;-81
2022/01/25 07:13:20;;;;;;;85.70;77.88;;;;;;;-4.24;100.00;102569.97;5060229;28;20041;-81
2022/01/25 07:15:47;;;;;;;83.55;75.95;;;;;;;-3.86;100.00;102560.56;5067780;28;20146;-79
2022/01/25 07:18:15;;;;;;;85.90;78.47;;;;;;;-4.15;100.00;102567.00;5065847;28;20053;-79
2022/01/25 07:20:42;;;;;;;85.63;77.90;;;;;;;-5.56;100.00;102565.69;5060503;28;20045;-80
2022/01/25 07:23:10;;;;;;;80.70;73.35;;;;;;;-4.89;100.00;102558.81;5067282;28;20098;-81
2022/01/25 07:25:37;;;;;;;76.97;70.15;;;;;;;-4.72;100.00;102571.09;5059445;28;20048;-81
2022/01/25 07:28:04;;;;;;;76.25;69.93;;;;;;;-4.09;100.00;102578.88;5058118;28;20110;-80
2022/01/25 07:30:31;;;;;;;78.32;71.78;;;;;;;-4.43;100.00;102573.34;5066131;28;20048;-81
2022/01/25 07:32:58;;;;;;;74.05;67.95;;;;;;;-4.01;100.00;102580.22;5060927;28;20045;-78
2022/01/25 07:35:24;;;;;;;77.15;71.20;;;;;;;-3.37;100.00;102586.09;5059645;28;20397;-79
2022/01/25 07:37:51;;;;;;;85.72;78.53;;;;;;;-4.44;100.00;102573.44;5061038;28;20052;-79
2022/01/25 07:40:19;;;;;;;83.82;76.55;;;;;;;-5.30;100.00;102582.81;5061059;28;20115;-77
2022/01/25 07:42:46;;;;;;;86.47;79.03;;;;;;;-3.61;100.00;102569.84;5062931;28;20071;-82
2022/01/25 07:45:13;;;;;;;94.95;86.55;;;;;;;-2.30;100.00;102565.34;5065117;28;20060;-80
2022/01/25 07:47:40;;;;;;;88.22;80.38;;;;;;;-2.88;100.00;102558.63;5064074;28;20057;-79
2022/01/25 07:50:09;;;;;;;85.75;78.70;;;;;;;-2.32;100.00;102556.78;5063730;28;20557;-81
2022/01/25 07:52:36;;;;;;;83.82;76.65;;;;;;;-3.54;100.00;102556.53;5066132;28;20041;-81
2022/01/25 07:55:04;;;;;;;78.32;71.78;;;;;;;-3.81;100.00;102555.16;5057814;28;20106;-82
2022/01/25 07:57:32;;;;;;;77.75;71.57;;;;;;;-3.71;100.00;102562.47;5063293;28;20059;-79
2022/01/25 07:59:59;;;;;;;84.03;76.72;;;;;;;-4.13;100.00;102559.16;5048724;28;20049;-79
2022/01/25 08:02:26;;;;;;;85.50;78.30;;;;;;;-1.68;100.00;102555.22;5050247;28;20520;-79
2022/01/25 08:04:52;;;;;;;91.57;83.75;;;;;;;-3.13;100.00;102551.16;5053044;28;20448;-78
2022/01/25 08:07:20;;;;;;;91.53;83.63;;;;;;;-3.47;100.00;102547.53;5049399;28;20041;-78
2022/01/25 08:09:47;;;;;;;85.07;77.40;;;;;;;-3.01;100.00;102554.94;5042819;28;20057;-77
2022/01/25 08:12:15;;;;;;;88.65;80.70;;;;;;;-3.36;100.00;102552.25;5052828;28;20041;-79
2022/01/25 08:14:44;;;;;;;84.65;77.20;;;;;;;-3.47;100.00;102551.91;5046923;28;20566;-79
2022/01/25 08:17:11;;;;;;;81.07;73.88;;;;;;;-3.44;100.00;102556.13;5052763;28;20120;-77
2022/01/25 08:19:38;;;;;;;87.50;79.57;;;;;;;-3.06;100.00;102549.13;5047446;28;20057;-77
2022/01/25 08:22:05;;;;;;;82.75;76.00;;;;;;;-2.25;100.00;102541.69;5044066;28;20053;-78
2022/01/25 08:24:31;;;;;;;79.22;72.60;;;;;;;-1.21;100.00;102541.38;5050761;28;20463;-80
2022/01/25 08:26:58;;;;;;;81.60;74.85;;;;;;;-2.23;100.00;102542.47;5052006;28;20045;-78
2022/01/25 08:29:25;;;;;;;79.72;72.80;;;;;;;-2.36;100.00;102545.69;5045594;28;20126;-78
2022/01/25 08:31:53;;;;;;;80.72;73.88;;;;;;;-3.10;100.00;102524.19;5054600;28;20056;-79
2022/01/25 08:34:20;;;;;;;83.30;76.60;;;;;;;-2.57;100.00;102547.59;5035569;28;20127;-80
2022/01/25 08:36:47;;;;;;;84.50;76.90;;;;;;;-2.50;100.00;102542.94;5035260;28;20049;-81
2022/01/25 08:39:14;;;;;;;88.80;81.18;;;;;;;-1.76;100.00;102545.19;5035272;28;20053;-79
2022/01/25 08:41:41;;;;;;;90.95;83.15;;;;;;;-1.87;100.00;102543.16;5034963;28;20489;-78
2022/01/25 08:44:08;;;;;;;83.32;76.03;;;;;;;-0.68;100.00;102534.06;5050442;28;20056;-78
2022/01/25 08:46:34;;;;;;;93.35;85.70;;;;;;;-2.04;100.00;102535.38;5050397;28;20049;-78
2022/01/25 08:49:03;;;;;;;83.95;77.47;;;;;;;-1.99;100.00;102527.34;5047777;28;20044;-81
2022/01/25 08:51:29;;;;;;;83.25;76.53;;;;;;;-2.16;100.00;102525.59;5040215;28;20053;-77
2022/01/25 08:53:56;;;;;;;82.78;76.28;;;;;;;-2.24;100.00;102527.75;5048566;28;20060;-79
2022/01/25 08:56:23;;;;;;;88.07;80.80;;;;;;;-2.91;100.00;102524.13;5049111;28;20551;-80
2022/01/25 08:58:50;;;;;;;87.03;79.70;;;;;;;-1.45;100.00;102520.13;5051365;28;20048;-79
2022/01/25 09:01:17;;;;;;;87.05;80.22;;;;;;;-1.27;100.00;102516.50;5046176;28;20474;-78
2022/01/25 09:03:44;;;;;;;95.15;87.85;;;;;;;-1.46;100.00;102518.41;5044802;28;20130;-78
2022/01/25 09:06:12;;;;;;;88.95;81.72;;;;;;;-2.07;100.00;102507.72;5048509;28;20107;-81
2022/01/25 09:08:39;;;;;;;85.25;78.18;;;;;;;-0.29;100.00;102505.63;5048575;28;20115;-77
2022/01/25 09:11:07;;;;;;;89.05;81.80;;;;;;;-0.82;100.00;102500.94;5050641;28;20045;-80
2022/01/25 09:13:34;;;;;;;86.20;79.50;;;;;;;-2.17;100.00;102497.91;5092077;28;21272;-78
2022/01/25 09:16:01;;;;;;;86.00;79.10;;;;;;;-1.09;100.00;102504.19;5091784;28;20475;-80
2022/01/25 09:18:28;;;;;;;89.15;81.75;;;;;;;-0.21;100.00;102483.41;5085224;28;20060;-79
2022/01/25 09:20:56;;;;;;;95.10;87.05;;;;;;;-0.52;100.00;102485.25;5080050;28;20101;-78
2022/01/25 09:23:25;;;;;;;93.38;85.53;;;;;;;-2.69;100.00;102490.09;5087390;28;20097;-78
2022/01/25 09:25:52;;;;;;;90.70;83.45;;;;;;;-1.63;100.00;102477.66;5088128;28;20062;-78
2022/01/25 09:28:19;;;;;;;89.50;82.20;;;;;;;-1.71;100.00;102482.44;5081539;28;20052;-79
2022/01/25 09:30:46;;;;;;;82.60;75.85;;;;;;;-0.21;100.00;102484.28;5093063;28;20044;-78
2022/01/25 09:33:14;;;;;;;79.22;73.43;;;;;;;-0.68;100.00;102485.31;5087745;28;20450;-80
2022/01/25 09:35:40;;;;;;;97.40;89.32;;;;;;;-2.41;100.00;102490.41;5087354;28;20468;-78
2022/01/25 09:38:08;;;;;;;89.30;81.70;;;;;;;0.95;100.00;102486.59;5083369;28;20458;-77
2022/01/25 09:40:37;;;;;;;93.47;85.65;;;;;;;-0.72;100.00;102492.50;5088255;28;20377;-79
2022/01/25 09:43:06;;;;;;;91.90;84.30;;;;;;;-1.82;100.00;102489.97;5084820;28;20048;-80
2022/01/25 09:45:33;;;;;;;92.15;84.63;;;;;;;-0.02;100.00;102470.94;5086125;28;20178;-78
2022/01/25 09:47:59;;;;;;;87.50;80.60;;;;;;;-2.08;100.00;102487.00;5087651;28;20048;-80
2022/01/25 09:50:26;;;;;;;91.30;83.78;;;;;;;-1.27;100.00;102479.13;5090941;28;20052;-78
2022/01/25 09:52:54;;;;;;;86.78;80.05;;;;;;;0.10;100.00;102469.34;5086638;28;20059;-79
2022/01/25 09:55:25;;;;;;;89.00;81.82;;;;;;;-1.34;100.00;102467.38;5086462;28;20104;-78
2022/01/25 09:57:54;;;;;;;88.57;81.53;;;;;;;-0.97;100.00;102471.34;5084377;28;20044;-81
2022/01/25 10:00:23;;;;;;;86.97;79.97;;;;;;;0.70;100.00;102476.88;5086107;28;20450;-77
2022/01/25 10:02:58;;;;;;;90.97;83.47;;;;;;;2.42;100.00;102478.31;5087453;28;20065;-81
2022/01/25 10:05:30;;;;;;;88.40;81.57;;;;;;;1.61;98.55;102466.50;5086272;28;20054;-79
2022/01/25 10:08:01;;;;;;;89.45;82.28;;;;;;;2.55;100.00;102455.53;5080304;28;20524;-77
2022/01/25 10:10:29;;;;;;;88.90;81.70;;;;;;;0.17;100.00;102454.97;5087732;28;20048;-80
2022/01/25 10:13:08;;;;;;;93.05;85.35;;;;;;;0.54;100.00;102450.84;5086551;28;20048;-79
2022/01/25 10:15:35;;;;;;;92.50;84.80;;;;;;;1.44;100.00;102451.91;5076580;28;20126;-78
2022/01/25 10:18:04;;;;;;;89.22;81.75;;;;;;;1.71;100.00;102453.59;5080861;28;20370;-79
2022/01/25 10:20:33;;;;;;;90.50;83.05;;;;;;;1.45;100.00;102456.19;5086200;28;20378;-79
2022/01/25 10:23:02;;;;;;;94.32;86.63;;;;;;;-0.65;99.45;102455.59;5080099;28;20476;-79
2022/01/25 10:25:31;;;;;;;97.00;88.72;;;;;;;0.14;100.00;102448.16;5086322;28;20044;-80
2022/01/25 10:28:00;;;;;;;91.32;83.88;;;;;;;-0.39;100.00;102446.19;5083531;28;20407;-83
2022/01/25 10:30:31;;;;;;;93.82;85.95;;;;;;;-0.55;100.00;102443.66;5088804;28;20077;-80
2022/01/25 10:33:01;;;;;;;92.57;85.18;;;;;;;0.46;100.00;102437.44;5089905;28;20093;-79
2022/01/25 10:35:29;;;;;;;90.57;83.32;;;;;;;1.82;100.00;102435.38;5085853;28;20127;-79
2022/01/25 10:37:56;;;;;;;82.88;76.32;;;;;;;0.34;100.00;102427.78;5084605;28;20131;-79
2022/01/25 10:40:36;;;;;;;93.95;85.90;;;;;;;1.81;100.00;102434.50;5084738;28;20051;-82
2022/01/25 10:43:07;;;;;;;92.95;84.82;;;;;;;1.96;95.61;102431.75;5084140;28;20044;-80
2022/01/25 10:45:34;;;;;;;89.93;82.43;;;;;;;-0.67;96.92;102416.53;5090340;28;20131;-80
2022/01/25 10:48:00;;;;;;;87.03;80.15;;;;;;;1.54;96.17;102431.16;5085874;28;20052;-80
2022/01/25 10:50:31;;;;;;;102.65;94.07;;;;;;;2.64;90.32;102419.91;5086493;28;20549;-80
2022/01/25 10:53:07;;;;;;;102.53;93.90;;;;;;;0.11;96.92;102409.13;5086297;28;20090;-80
2022/01/25 10:55:39;;;;;;;214.05;126.75;;;;;;;-0.15;98.40;102405.56;5089352;28;20040;-79
2022/01/25 10:58:08;;;;;;;99.22;91.28;;;;;;;0.85;95.51;102407.88;5083940;28;20072;-80
2022/01/25 11:00:40;;;;;;;103.22;94.68;;;;;;;1.28;90.74;102404.16;5090828;28;20044;-81
2022/01/25 11:03:07;;;;;;;106.95;97.85;;;;;;;1.57;89.68;102405.63;5086351;28;20381;-80
2022/01/25 11:05:37;;;;;;;90.47;83.55;;;;;;;2.60;89.47;102405.31;5088407;28;20080;-79
2022/01/25 11:08:14;;;;;;;95.47;87.65;;;;;;;0.68;83.08;102408.13;5086228;28;20051;-80
2022/01/25 11:10:47;;;;;;;101.28;93.32;;;;;;;1.87;91.02;102388.69;5086197;28;20044;-82
2022/01/25 11:13:34;;;;;;;97.22;89.13;;;;;;;2.08;87.02;102391.56;5085264;28;20079;-79
2022/01/25 11:16:03;;;;;;;95.78;87.93;;;;;;;1.19;86.44;102376.81;5092466;28;20462;-81
2022/01/25 11:18:31;;;;;;;90.30;83.07;;;;;;;4.96;77.96;102373.63;5088390;28;20048;-78
2022/01/25 11:20:59;;;;;;;92.75;85.47;;;;;;;1.80;74.17;102369.13;5086305;28;20135;-79
2022/01/25 11:23:27;;;;;;;91.40;84.38;;;;;;;3.11;76.43;102361.22;5087206;28;20530;-80
2022/01/25 11:25:56;;;;;;;89.32;82.28;;;;;;;2.02;75.17;102350.09;5089405;28;20105;-81
2022/01/25 11:31:21;;;;;;;91.30;83.82;;;;;;;3.16;75.24;102338.09;5090475;27;20761;-83
2022/01/25 11:33:51;;;;;;;90.32;83.03;;;;;;;3.63;67.16;102335.34;5073008;28;20481;-82
2022/01/25 11:36:19;;;;;;;89.45;82.05;;;;;;;1.87;71.60;102332.84;5069964;28;20055;-80
2022/01/25 11:38:49;;;;;;;88.70;81.35;;;;;;;1.93;78.50;102327.97;5069827;28;20052;-79
2022/01/25 11:41:24;;;;;;;94.90;87.25;;;;;;;3.61;75.45;102326.75;5069851;28;20056;-81
2022/01/25 11:44:07;;;;;;;98.18;89.88;;;;;;;3.83;72.51;102323.25;5067025;28;20139;-79
2022/01/25 11:46:37;;;;;;;;;;;;;;;1.73;71.51;102315.50;5070094;28;20040;-80
2022/01/25 11:49:06;;;;;;;99.93;91.63;;;;;;;2.68;75.35;102319.84;5066961;28;19928;-79
2022/01/25 11:51:34;;;;;;;101.65;93.38;;;;;;;2.81;72.03;102316.31;5063632;28;20049;-78
2022/01/25 11:54:04;;;;;;;102.07;93.93;;;;;;;3.44;69.63;102317.56;5063496;28;20132;-80
2022/01/25 11:56:31;;;;;;;102.53;94.00;;;;;;;2.68;69.59;102308.53;5064624;28;20045;-78
2022/01/25 11:59:00;;;;;;;104.72;96.07;;;;;;;1.31;71.23;102318.38;5062545;28;20041;-78
2022/01/25 12:01:28;;;;;;;97.50;89.57;;;;;;;2.13;68.25;102308.22;5069648;28;20041;-81
2022/01/25 12:04:00;;;;;;;99.38;91.22;;;;;;;0.89;77.17;102307.31;5063735;28;20049;-80
2022/01/25 12:06:32;;;;;;;99.33;91.07;;;;;;;1.43;85.74;102308.03;5063609;28;20459;-79
2022/01/25 12:09:08;;;;;;;95.70;87.75;;;;;;;1.07;80.69;102309.63;5061492;28;20298;-81
2022/01/25 12:11:38;;;;;;;98.15;90.25;;;;;;;1.71;71.75;102299.88;5060270;28;20055;-79
2022/01/25 12:14:30;;;;;;;100.32;92.22;;;;;;;2.24;72.20;102289.91;5067728;28;20091;-79
2022/01/25 12:17:09;;;;;;;100.53;92.43;;;;;;;1.89;72.35;102294.25;5067492;28;20493;-79
2022/01/25 12:19:44;;;;;;;98.85;90.65;;;;;;;1.17;74.59;102287.09;5067705;28;20374;-78
2022/01/25 12:22:17;;;;;;;104.88;96.22;;;;;;;2.48;67.15;102289.88;5060136;28;20056;-80
2022/01/25 12:25:00;;;;;;;97.35;89.88;;;;;;;2.83;61.74;102289.00;5064225;28;20258;-79
2022/01/25 12:27:45;;;;;;;101.68;93.40;;;;;;;1.53;68.59;102275.00;5058433;28;20055;-79
2022/01/25 12:30:14;;;;;;;100.15;92.32;;;;;;;3.46;69.25;102268.38;5059141;28;20051;-80
2022/01/25 12:32:58;;;;;;;99.47;91.22;;;;;;;0.68;68.98;102272.97;5064177;28;20505;-81